sensor_id;sensor_type;location;lat;lon;timestamp;pressure;altitude;pressure_sealevel;temperature;humidity
9784;BME280;4931;44.874;-1.092;2022-09-09T00:02:54;101400.16;;;18.23;100.00
9784;BME280;4931;44.874;-1.092;2022-09-09T00:07:45;101397.09;;;18.11;100.00
9784;BME280;4931;44.874;-1.092;2022-09-09T00:12:34;101401.16;;;18.04;100.00
9784;BME280;4931;44.874;-1.092;2022-09-09T00:17:32;101395.28;;;18.06;100.00
9784;BME280;4931;44.874;-1.092;2022-09-09T00:22:23;101382.97;;;17.98;100.00
9784;BME280;4931;44.874;-1.092;2022-09-09T00:27:13;101395.16;;;18.11;100.00
9784;BME280;4931;44.874;-1.092;2022-09-09T00:32:12;101402.91;;;18.00;100.00
9784;BME280;4931;44.874;-1.092;2022-09-09T00:37:02;101399.00;;;18.01;100.00
9784;BME280;4931;44.874;-1.092;2022-09-09T00:41:58;101379.69;;;17.96;100.00
9784;BME280;4931;44.874;-1.092;2022-09-09T00:46:57;101368.59;;;17.96;100.00
9784;BME280;4931;44.874;-1.092;2022-09-09T00:51:50;101367.56;;;17.92;100.00
9784;BME280;4931;44.874;-1.092;2022-09-09T00:56:45;101366.53;;;17.88;100.00
9784;BME280;4931;44.874;-1.092;2022-09-09T01:01:33;101369.25;;;17.79;100.00
9784;BME280;4931;44.874;-1.092;2022-09-09T01:06:22;101375.63;;;17.80;100.00
9784;BME280;4931;44.874;-1.092;2022-09-09T01:11:17;101372.34;;;17.78;100.00
9784;BME280;4931;44.874;-1.092;2022-09-09T01:16:10;101378.91;;;17.82;100.00
9784;BME280;4931;44.874;-1.092;2022-09-09T01:21:04;101385.44;;;17.86;100.00
9784;BME280;4931;44.874;-1.092;2022-09-09T01:26:11;101379.28;;;17.89;100.00
9784;BME280;4931;44.874;-1.092;2022-09-09T01:30:58;101372.91;;;17.88;100.00
9784;BME280;4931;44.874;-1.092;2022-09-09T01:35:48;101381.66;;;17.82;100.00
9784;BME280;4931;44.874;-1.092;2022-09-09T01:40:36;101384.06;;;17.74;100.00
9784;BME280;4931;44.874;-1.092;2022-09-09T01:45:24;101384.69;;;17.71;100.00
9784;BME280;4931;44.874;-1.092;2022-09-09T01:50:13;101381.19;;;17.80;100.00
9784;BME280;4931;44.874;-1.092;2022-09-09T01:54:59;101374.63;;;17.75;100.00
9784;BME280;4931;44.874;-1.092;2022-09-09T01:59:57;101371.31;;;17.73;100.00
9784;BME280;4931;44.874;-1.092;2022-09-09T02:04:52;101373.97;;;17.79;100.00
9784;BME280;4931;44.874;-1.092;2022-09-09T02:09:39;101370.69;;;17.76;100.00
9784;BME280;4931;44.874;-1.092;2022-09-09T02:14:30;101374.84;;;17.65;100.00
9784;BME280;4931;44.874;-1.092;2022-09-09T02:19:24;101381.00;;;17.62;100.00
9784;BME280;4931;44.874;-1.092;2022-09-09T02:24:15;101375.09;;;17.55;100.00
9784;BME280;4931;44.874;-1.092;2022-09-09T02:29:03;101372.00;;;17.56;100.00
9784;BME280;4931;44.874;-1.092;2022-09-09T02:33:53;101372.69;;;17.62;100.00
9784;BME280;4931;44.874;-1.092;2022-09-09T02:38:42;101376.75;;;17.56;100.00
9784;BME280;4931;44.874;-1.092;2022-09-09T02:43:35;101376.75;;;17.56;100.00
9784;BME280;4931;44.874;-1.092;2022-09-09T02:48:25;101377.22;;;17.58;100.00
9784;BME280;4931;44.874;-1.092;2022-09-09T02:53:17;101371.78;;;17.53;100.00
9784;BME280;4931;44.874;-1.092;2022-09-09T02:58:04;101374.78;;;17.42;100.00
9784;BME280;4931;44.874;-1.092;2022-09-09T03:02:54;101386.78;;;17.52;100.00
9784;BME280;4931;44.874;-1.092;2022-09-09T03:07:40;101384.00;;;17.52;100.00
9784;BME280;4931;44.874;-1.092;2022-09-09T03:12:25;101392.59;;;17.41;100.00
9784;BME280;4931;44.874;-1.092;2022-09-09T03:17:10;101394.03;;;17.39;100.00
9784;BME280;4931;44.874;-1.092;2022-09-09T03:21:58;101396.19;;;17.28;100.00
9784;BME280;4931;44.874;-1.092;2022-09-09T03:26:43;101395.47;;;17.22;100.00
9784;BME280;4931;44.874;-1.092;2022-09-09T03:31:29;101387.38;;;17.12;100.00
9784;BME280;4931;44.874;-1.092;2022-09-09T03:36:15;101393.34;;;17.05;100.00
9784;BME280;4931;44.874;-1.092;2022-09-09T03:41:03;101385.66;;;17.02;100.00
9784;BME280;4931;44.874;-1.092;2022-09-09T03:45:50;101388.53;;;16.97;100.00
9784;BME280;4931;44.874;-1.092;2022-09-09T03:50:39;101390.53;;;16.77;100.00
9784;BME280;4931;44.874;-1.092;2022-09-09T03:55:28;101395.63;;;16.70;100.00
9784;BME280;4931;44.874;-1.092;2022-09-09T04:00:16;101402.22;;;16.74;100.00
9784;BME280;4931;44.874;-1.092;2022-09-09T04:05:01;101388.28;;;16.80;100.00
9784;BME280;4931;44.874;-1.092;2022-09-09T04:09:49;101394.84;;;16.84;100.00
9784;BME280;4931;44.874;-1.092;2022-09-09T04:14:36;101391.97;;;16.89;100.00
9784;BME280;4931;44.874;-1.092;2022-09-09T04:19:24;101392.19;;;16.79;100.00
9784;BME280;4931;44.874;-1.092;2022-09-09T04:24:10;101397.41;;;16.80;100.00
9784;BME280;4931;44.874;-1.092;2022-09-09T04:28:55;101411.88;;;16.77;100.00
9784;BME280;4931;44.874;-1.092;2022-09-09T04:33:40;101401.63;;;16.77;100.00
9784;BME280;4931;44.874;-1.092;2022-09-09T04:38:28;101410.81;;;16.73;100.00
9784;BME280;4931;44.874;-1.092;2022-09-09T04:43:14;101414.94;;;16.75;100.00
9784;BME280;4931;44.874;-1.092;2022-09-09T04:48:00;101416.59;;;16.76;100.00
9784;BME280;4931;44.874;-1.092;2022-09-09T04:52:46;101413.72;;;16.82;100.00
9784;BME280;4931;44.874;-1.092;2022-09-09T04:57:34;101410.44;;;16.80;100.00
9784;BME280;4931;44.874;-1.092;2022-09-09T05:02:19;101416.00;;;16.80;100.00
9784;BME280;4931;44.874;-1.092;2022-09-09T05:07:05;101411.03;;;16.76;100.00
9784;BME280;4931;44.874;-1.092;2022-09-09T05:11:50;101415.56;;;16.72;100.00
9784;BME280;4931;44.874;-1.092;2022-09-09T05:16:38;101415.16;;;16.65;100.00
9784;BME280;4931;44.874;-1.092;2022-09-09T05:21:24;101418.50;;;16.62;100.00
9784;BME280;4931;44.874;-1.092;2022-09-09T05:26:13;101420.88;;;16.55;100.00
9784;BME280;4931;44.874;-1.092;2022-09-09T05:30:59;101428.81;;;16.42;100.00
9784;BME280;4931;44.874;-1.092;2022-09-09T05:35:55;101424.06;;;16.29;100.00
9784;BME280;4931;44.874;-1.092;2022-09-09T05:40:47;101423.03;;;16.25;100.00
9784;BME280;4931;44.874;-1.092;2022-09-09T05:45:32;101422.59;;;16.18;100.00
9784;BME280;4931;44.874;-1.092;2022-09-09T05:50:18;101430.88;;;16.18;100.00
9784;BME280;4931;44.874;-1.092;2022-09-09T05:55:07;101437.13;;;16.09;100.00
9784;BME280;4931;44.874;-1.092;2022-09-09T05:59:52;101439.19;;;15.80;100.00
9784;BME280;4931;44.874;-1.092;2022-09-09T06:04:38;101426.97;;;15.86;100.00
9784;BME280;4931;44.874;-1.092;2022-09-09T06:09:23;101432.19;;;16.06;100.00
9784;BME280;4931;44.874;-1.092;2022-09-09T06:14:11;101440.03;;;16.18;100.00
9784;BME280;4931;44.874;-1.092;2022-09-09T06:18:57;101437.28;;;16.32;100.00
9784;BME280;4931;44.874;-1.092;2022-09-09T06:23:43;101442.34;;;16.44;100.00
9784;BME280;4931;44.874;-1.092;2022-09-09T06:28:29;101442.31;;;16.63;100.00
9784;BME280;4931;44.874;-1.092;2022-09-09T06:33:17;101452.75;;;16.99;100.00
9784;BME280;4931;44.874;-1.092;2022-09-09T06:38:02;101453.31;;;17.80;100.00
9784;BME280;4931;44.874;-1.092;2022-09-09T06:42:48;101447.03;;;18.24;100.00
9784;BME280;4931;44.874;-1.092;2022-09-09T06:47:33;101444.88;;;18.44;100.00
9784;BME280;4931;44.874;-1.092;2022-09-09T06:52:21;101450.66;;;18.88;100.00
9784;BME280;4931;44.874;-1.092;2022-09-09T06:57:07;101447.41;;;19.26;100.00
9784;BME280;4931;44.874;-1.092;2022-09-09T07:02:12;101456.41;;;19.32;100.00
9784;BME280;4931;44.874;-1.092;2022-09-09T07:06:58;101459.88;;;19.37;100.00
9784;BME280;4931;44.874;-1.092;2022-09-09T07:11:49;101470.88;;;19.02;100.00
9784;BME280;4931;44.874;-1.092;2022-09-09T07:16:35;101478.69;;;19.40;100.00
9784;BME280;4931;44.874;-1.092;2022-09-09T07:21:21;101473.09;;;19.98;100.00
9784;BME280;4931;44.874;-1.092;2022-09-09T07:26:09;101471.72;;;20.92;100.00
9784;BME280;4931;44.874;-1.092;2022-09-09T07:30:59;101473.28;;;21.70;100.00
9784;BME280;4931;44.874;-1.092;2022-09-09T07:35:47;101481.22;;;21.89;100.00
9784;BME280;4931;44.874;-1.092;2022-09-09T07:40:32;101484.31;;;22.30;100.00
9784;BME280;4931;44.874;-1.092;2022-09-09T07:45:18;101484.84;;;22.66;100.00
9784;BME280;4931;44.874;-1.092;2022-09-09T07:50:07;101475.94;;;23.10;100.00
9784;BME280;4931;44.874;-1.092;2022-09-09T07:54:52;101474.94;;;23.39;100.00
9784;BME280;4931;44.874;-1.092;2022-09-09T07:59:38;101474.31;;;23.58;100.00
9784;BME280;4931;44.874;-1.092;2022-09-09T08:04:24;101475.47;;;23.69;100.00
9784;BME280;4931;44.874;-1.092;2022-09-09T08:09:13;101488.97;;;22.93;100.00
9784;BME280;4931;44.874;-1.092;2022-09-09T08:13:59;101493.94;;;22.42;100.00
9784;BME280;4931;44.874;-1.092;2022-09-09T08:18:44;101491.22;;;22.66;100.00
9784;BME280;4931;44.874;-1.092;2022-09-09T08:23:29;101496.13;;;23.40;100.00
9784;BME280;4931;44.874;-1.092;2022-09-09T08:28:17;101494.34;;;23.85;100.00
9784;BME280;4931;44.874;-1.092;2022-09-09T08:33:03;101502.63;;;24.34;100.00
9784;BME280;4931;44.874;-1.092;2022-09-09T08:37:48;101512.34;;;23.71;100.00
9784;BME280;4931;44.874;-1.092;2022-09-09T08:42:38;101512.09;;;23.15;100.00
9784;BME280;4931;44.874;-1.092;2022-09-09T08:47:34;101521.84;;;22.96;100.00
9784;BME280;4931;44.874;-1.092;2022-09-09T08:52:27;101543.69;;;22.27;100.00
9784;BME280;4931;44.874;-1.092;2022-09-09T08:57:20;101543.41;;;22.96;100.00
9784;BME280;4931;44.874;-1.092;2022-09-09T09:02:15;101543.03;;;23.56;100.00
9784;BME280;4931;44.874;-1.092;2022-09-09T09:07:13;101545.25;;;23.99;100.00
9784;BME280;4931;44.874;-1.092;2022-09-09T09:12:01;101563.59;;;23.97;100.00
9784;BME280;4931;44.874;-1.092;2022-09-09T09:16:51;101579.66;;;22.92;100.00
9784;BME280;4931;44.874;-1.092;2022-09-09T09:21:41;101597.25;;;22.29;100.00
9784;BME280;4931;44.874;-1.092;2022-09-09T09:26:32;101597.97;;;21.96;100.00
9784;BME280;4931;44.874;-1.092;2022-09-09T09:31:19;101596.38;;;22.80;100.00
9784;BME280;4931;44.874;-1.092;2022-09-09T09:36:07;101582.56;;;23.66;100.00
9784;BME280;4931;44.874;-1.092;2022-09-09T09:40:56;101588.53;;;23.52;100.00
9784;BME280;4931;44.874;-1.092;2022-09-09T09:45:45;101597.16;;;23.01;100.00
9784;BME280;4931;44.874;-1.092;2022-09-09T09:50:52;101604.53;;;23.06;100.00
9784;BME280;4931;44.874;-1.092;2022-09-09T09:55:47;101614.31;;;23.58;100.00
9784;BME280;4931;44.874;-1.092;2022-09-09T10:00:35;101610.13;;;24.26;100.00
9784;BME280;4931;44.874;-1.092;2022-09-09T10:05:24;101610.41;;;24.90;100.00
9784;BME280;4931;44.874;-1.092;2022-09-09T10:10:23;101610.59;;;24.97;100.00
9784;BME280;4931;44.874;-1.092;2022-09-09T10:15:22;101613.00;;;25.11;100.00
9784;BME280;4931;44.874;-1.092;2022-09-09T10:20:19;101615.81;;;24.83;100.00
9784;BME280;4931;44.874;-1.092;2022-09-09T10:25:31;101616.59;;;25.12;100.00
9784;BME280;4931;44.874;-1.092;2022-09-09T10:30:22;101621.91;;;24.73;100.00
9784;BME280;4931;44.874;-1.092;2022-09-09T10:35:12;101621.63;;;24.49;100.00
9784;BME280;4931;44.874;-1.092;2022-09-09T10:40:04;101626.22;;;24.29;100.00
9784;BME280;4931;44.874;-1.092;2022-09-09T10:45:09;101631.81;;;24.29;100.00
9784;BME280;4931;44.874;-1.092;2022-09-09T10:50:18;101625.44;;;24.04;100.00
9784;BME280;4931;44.874;-1.092;2022-09-09T10:55:37;101623.13;;;24.06;100.00
9784;BME280;4931;44.874;-1.092;2022-09-09T11:00:35;101627.88;;;24.06;100.00
9784;BME280;4931;44.874;-1.092;2022-09-09T11:05:28;101620.84;;;24.24;100.00
9784;BME280;4931;44.874;-1.092;2022-09-09T11:10:21;101632.94;;;24.65;100.00
9784;BME280;4931;44.874;-1.092;2022-09-09T11:15:18;101640.44;;;24.49;100.00
9784;BME280;4931;44.874;-1.092;2022-09-09T11:20:11;101640.72;;;24.19;100.00
9784;BME280;4931;44.874;-1.092;2022-09-09T11:25:01;101646.81;;;23.96;100.00
9784;BME280;4931;44.874;-1.092;2022-09-09T11:30:13;101647.00;;;23.79;100.00
9784;BME280;4931;44.874;-1.092;2022-09-09T11:35:30;101642.72;;;23.94;100.00
9784;BME280;4931;44.874;-1.092;2022-09-09T11:40:21;101654.91;;;23.52;100.00
9784;BME280;4931;44.874;-1.092;2022-09-09T11:45:20;101671.94;;;22.92;100.00
9784;BME280;4931;44.874;-1.092;2022-09-09T11:50:22;101670.31;;;22.70;100.00
9784;BME280;4931;44.874;-1.092;2022-09-09T11:55:26;101676.06;;;22.74;100.00
9784;BME280;4931;44.874;-1.092;2022-09-09T12:00:32;101689.19;;;22.73;100.00
9784;BME280;4931;44.874;-1.092;2022-09-09T12:05:19;101693.75;;;22.35;100.00
9784;BME280;4931;44.874;-1.092;2022-09-09T12:10:19;101692.97;;;22.26;100.00
9784;BME280;4931;44.874;-1.092;2022-09-09T12:15:24;101696.59;;;22.18;100.00
9784;BME280;4931;44.874;-1.092;2022-09-09T12:20:14;101701.88;;;22.19;100.00
9784;BME280;4931;44.874;-1.092;2022-09-09T12:25:08;101696.91;;;21.86;100.00
9784;BME280;4931;44.874;-1.092;2022-09-09T12:30:07;101714.34;;;21.83;100.00
9784;BME280;4931;44.874;-1.092;2022-09-09T12:35:00;101703.19;;;21.75;100.00
9784;BME280;4931;44.874;-1.092;2022-09-09T12:39:51;101700.72;;;22.50;100.00
9784;BME280;4931;44.874;-1.092;2022-09-09T12:44:38;101686.00;;;22.62;100.00
9784;BME280;4931;44.874;-1.092;2022-09-09T12:49:29;101702.09;;;22.65;100.00
9784;BME280;4931;44.874;-1.092;2022-09-09T12:54:19;101692.00;;;22.52;100.00
9784;BME280;4931;44.874;-1.092;2022-09-09T12:59:17;101690.56;;;22.46;100.00
9784;BME280;4931;44.874;-1.092;2022-09-09T13:04:19;101678.66;;;22.79;100.00
9784;BME280;4931;44.874;-1.092;2022-09-09T13:09:04;101676.44;;;23.05;100.00
9784;BME280;4931;44.874;-1.092;2022-09-09T13:13:54;101671.91;;;23.93;100.00
9784;BME280;4931;44.874;-1.092;2022-09-09T13:18:41;101659.84;;;24.29;100.00
9784;BME280;4931;44.874;-1.092;2022-09-09T13:23:28;101650.53;;;24.25;100.00
9784;BME280;4931;44.874;-1.092;2022-09-09T13:28:21;101655.66;;;24.35;100.00
9784;BME280;4931;44.874;-1.092;2022-09-09T13:33:22;101652.38;;;24.46;100.00
9784;BME280;4931;44.874;-1.092;2022-09-09T13:38:08;101645.69;;;24.63;100.00
9784;BME280;4931;44.874;-1.092;2022-09-09T13:42:55;101638.69;;;24.44;100.00
9784;BME280;4931;44.874;-1.092;2022-09-09T13:47:41;101642.28;;;24.69;100.00
9784;BME280;4931;44.874;-1.092;2022-09-09T13:52:30;101656.56;;;24.52;100.00
9784;BME280;4931;44.874;-1.092;2022-09-09T13:57:17;101655.16;;;24.33;100.00
9784;BME280;4931;44.874;-1.092;2022-09-09T14:02:02;101655.91;;;24.18;100.00
9784;BME280;4931;44.874;-1.092;2022-09-09T14:06:48;101666.88;;;24.11;100.00
9784;BME280;4931;44.874;-1.092;2022-09-09T14:11:36;101672.22;;;24.41;100.00
9784;BME280;4931;44.874;-1.092;2022-09-09T14:16:22;101661.94;;;24.45;100.00
9784;BME280;4931;44.874;-1.092;2022-09-09T14:21:08;101660.72;;;24.58;100.00
9784;BME280;4931;44.874;-1.092;2022-09-09T14:25:53;101666.34;;;24.58;100.00
9784;BME280;4931;44.874;-1.092;2022-09-09T14:30:42;101652.38;;;24.46;100.00
9784;BME280;4931;44.874;-1.092;2022-09-09T14:35:28;101654.72;;;24.31;100.00
9784;BME280;4931;44.874;-1.092;2022-09-09T14:40:15;101659.88;;;23.92;100.00
9784;BME280;4931;44.874;-1.092;2022-09-09T14:45:00;101668.13;;;23.88;100.00
9784;BME280;4931;44.874;-1.092;2022-09-09T14:49:48;101670.22;;;23.67;100.00
9784;BME280;4931;44.874;-1.092;2022-09-09T14:54:35;101673.38;;;23.65;100.00
9784;BME280;4931;44.874;-1.092;2022-09-09T14:59:20;101665.44;;;23.55;100.00
9784;BME280;4931;44.874;-1.092;2022-09-09T15:04:06;101658.13;;;23.29;100.00
9784;BME280;4931;44.874;-1.092;2022-09-09T15:08:54;101662.34;;;23.35;100.00
9784;BME280;4931;44.874;-1.092;2022-09-09T15:13:41;101658.13;;;23.29;100.00
9784;BME280;4931;44.874;-1.092;2022-09-09T15:18:26;101664.00;;;23.36;100.00
9784;BME280;4931;44.874;-1.092;2022-09-09T15:23:12;101659.56;;;23.48;100.00
9784;BME280;4931;44.874;-1.092;2022-09-09T15:28:01;101661.63;;;23.38;100.00
9784;BME280;4931;44.874;-1.092;2022-09-09T15:32:46;101665.19;;;23.60;100.00
9784;BME280;4931;44.874;-1.092;2022-09-09T15:37:31;101668.22;;;23.55;100.00
9784;BME280;4931;44.874;-1.092;2022-09-09T15:42:17;101667.97;;;23.48;100.00
9784;BME280;4931;44.874;-1.092;2022-09-09T15:47:04;101660.13;;;23.41;100.00
9784;BME280;4931;44.874;-1.092;2022-09-09T15:51:51;101671.47;;;23.45;100.00
9784;BME280;4931;44.874;-1.092;2022-09-09T15:56:37;101677.28;;;23.40;100.00
9784;BME280;4931;44.874;-1.092;2022-09-09T16:01:23;101670.56;;;23.65;100.00
9784;BME280;4931;44.874;-1.092;2022-09-09T16:06:12;101662.13;;;23.53;100.00
9784;BME280;4931;44.874;-1.092;2022-09-09T16:11:04;101657.19;;;23.37;100.00
9784;BME280;4931;44.874;-1.092;2022-09-09T16:15:54;101653.03;;;23.10;100.00
9784;BME280;4931;44.874;-1.092;2022-09-09T16:20:40;101660.41;;;22.94;100.00
9784;BME280;4931;44.874;-1.092;2022-09-09T16:25:28;101659.84;;;23.00;100.00
9784;BME280;4931;44.874;-1.092;2022-09-09T16:30:13;101650.94;;;22.65;100.00
9784;BME280;4931;44.874;-1.092;2022-09-09T16:34:59;101649.78;;;22.66;100.00
9784;BME280;4931;44.874;-1.092;2022-09-09T16:39:45;101651.84;;;22.78;100.00
9784;BME280;4931;44.874;-1.092;2022-09-09T16:44:33;101650.91;;;22.52;100.00
9784;BME280;4931;44.874;-1.092;2022-09-09T16:49:19;101649.84;;;22.57;100.00
9784;BME280;4931;44.874;-1.092;2022-09-09T16:54:06;101644.25;;;22.57;100.00
9784;BME280;4931;44.874;-1.092;2022-09-09T16:58:54;101658.72;;;22.38;100.00
9784;BME280;4931;44.874;-1.092;2022-09-09T17:03:42;101660.78;;;22.20;100.00
9784;BME280;4931;44.874;-1.092;2022-09-09T17:08:28;101655.75;;;22.04;100.00
9784;BME280;4931;44.874;-1.092;2022-09-09T17:13:15;101660.38;;;22.00;100.00
9784;BME280;4931;44.874;-1.092;2022-09-09T17:18:01;101659.50;;;21.79;100.00
9784;BME280;4931;44.874;-1.092;2022-09-09T17:22:49;101660.31;;;21.79;100.00
9784;BME280;4931;44.874;-1.092;2022-09-09T17:27:34;101665.75;;;21.76;100.00
9784;BME280;4931;44.874;-1.092;2022-09-09T17:32:19;101674.31;;;21.70;100.00
9784;BME280;4931;44.874;-1.092;2022-09-09T17:37:05;101663.84;;;21.50;100.00
9784;BME280;4931;44.874;-1.092;2022-09-09T17:41:53;101664.72;;;21.33;100.00
9784;BME280;4931;44.874;-1.092;2022-09-09T17:46:39;101658.28;;;21.32;100.00
9784;BME280;4931;44.874;-1.092;2022-09-09T17:51:26;101671.94;;;21.25;100.00
9784;BME280;4931;44.874;-1.092;2022-09-09T17:56:14;101669.16;;;21.25;100.00
9784;BME280;4931;44.874;-1.092;2022-09-09T18:01:05;101668.66;;;21.23;100.00
9784;BME280;4931;44.874;-1.092;2022-09-09T18:05:51;101669.16;;;21.08;100.00
9784;BME280;4931;44.874;-1.092;2022-09-09T18:10:36;101661.63;;;20.99;100.00
9784;BME280;4931;44.874;-1.092;2022-09-09T18:15:21;101661.59;;;20.64;100.00
9784;BME280;4931;44.874;-1.092;2022-09-09T18:20:30;101672.91;;;20.68;100.00
9784;BME280;4931;44.874;-1.092;2022-09-09T18:25:15;101670.44;;;20.49;100.00
9784;BME280;4931;44.874;-1.092;2022-09-09T18:30:00;101676.03;;;20.49;100.00
9784;BME280;4931;44.874;-1.092;2022-09-09T18:34:46;101675.00;;;20.36;100.00
9784;BME280;4931;44.874;-1.092;2022-09-09T18:39:39;101676.78;;;20.23;100.00
9784;BME280;4931;44.874;-1.092;2022-09-09T18:44:26;101669.75;;;20.26;100.00
9784;BME280;4931;44.874;-1.092;2022-09-09T18:49:12;101681.84;;;20.21;100.00
9784;BME280;4931;44.874;-1.092;2022-09-09T18:53:59;101684.44;;;20.09;100.00
9784;BME280;4931;44.874;-1.092;2022-09-09T18:58:50;101685.44;;;20.13;100.00
9784;BME280;4931;44.874;-1.092;2022-09-09T19:03:37;101682.78;;;20.07;100.00
9784;BME280;4931;44.874;-1.092;2022-09-09T19:08:22;101686.38;;;19.99;100.00
9784;BME280;4931;44.874;-1.092;2022-09-09T19:13:07;101697.84;;;19.98;100.00
9784;BME280;4931;44.874;-1.092;2022-09-09T19:17:56;101705.19;;;19.94;100.00
9784;BME280;4931;44.874;-1.092;2022-09-09T19:22:46;101718.16;;;19.76;100.00
9784;BME280;4931;44.874;-1.092;2022-09-09T19:27:31;101717.19;;;19.49;100.00
9784;BME280;4931;44.874;-1.092;2022-09-09T19:32:18;101726.69;;;19.48;100.00
9784;BME280;4931;44.874;-1.092;2022-09-09T19:37:26;101723.75;;;19.30;100.00
9784;BME280;4931;44.874;-1.092;2022-09-09T19:42:13;101739.19;;;19.14;100.00
9784;BME280;4931;44.874;-1.092;2022-09-09T19:46:58;101730.97;;;19.08;100.00
9784;BME280;4931;44.874;-1.092;2022-09-09T19:51:44;101740.88;;;18.87;100.00
9784;BME280;4931;44.874;-1.092;2022-09-09T19:56:33;101743.97;;;18.85;100.00
9784;BME280;4931;44.874;-1.092;2022-09-09T20:01:20;101737.19;;;18.78;100.00
9784;BME280;4931;44.874;-1.092;2022-09-09T20:06:07;101749.06;;;18.69;100.00
9784;BME280;4931;44.874;-1.092;2022-09-09T20:10:53;101753.91;;;18.50;100.00
9784;BME280;4931;44.874;-1.092;2022-09-09T20:15:41;101758.22;;;18.42;100.00
9784;BME280;4931;44.874;-1.092;2022-09-09T20:20:26;101752.78;;;18.23;100.00
9784;BME280;4931;44.874;-1.092;2022-09-09T20:25:11;101750.03;;;18.23;100.00
9784;BME280;4931;44.874;-1.092;2022-09-09T20:29:57;101745.88;;;18.06;100.00
9784;BME280;4931;44.874;-1.092;2022-09-09T20:34:45;101746.69;;;17.93;100.00
9784;BME280;4931;44.874;-1.092;2022-09-09T20:39:30;101750.97;;;17.85;100.00
9784;BME280;4931;44.874;-1.092;2022-09-09T20:44:18;101741.06;;;17.79;100.00
9784;BME280;4931;44.874;-1.092;2022-09-09T20:49:04;101749.88;;;17.67;100.00
9784;BME280;4931;44.874;-1.092;2022-09-09T20:53:55;101748.47;;;16.80;100.00
9784;BME280;4931;44.874;-1.092;2022-09-09T20:58:41;101744.09;;;16.73;100.00
9784;BME280;4931;44.874;-1.092;2022-09-09T21:03:28;101742.06;;;17.03;100.00
9784;BME280;4931;44.874;-1.092;2022-09-09T21:08:14;101752.47;;;17.12;100.00
9784;BME280;4931;44.874;-1.092;2022-09-09T21:13:02;101759.19;;;17.05;100.00
9784;BME280;4931;44.874;-1.092;2022-09-09T21:17:47;101766.59;;;16.91;100.00
9784;BME280;4931;44.874;-1.092;2022-09-09T21:22:32;101765.22;;;16.88;100.00
9784;BME280;4931;44.874;-1.092;2022-09-09T21:27:17;101760.13;;;16.76;100.00
9784;BME280;4931;44.874;-1.092;2022-09-09T21:32:07;101764.47;;;16.83;100.00
9784;BME280;4931;44.874;-1.092;2022-09-09T21:36:52;101766.47;;;16.34;100.00
9784;BME280;4931;44.874;-1.092;2022-09-09T21:41:37;101768.91;;;16.59;100.00
9784;BME280;4931;44.874;-1.092;2022-09-09T21:46:23;101767.44;;;16.67;100.00
9784;BME280;4931;44.874;-1.092;2022-09-09T21:51:14;101762.50;;;16.64;100.00
9784;BME280;4931;44.874;-1.092;2022-09-09T21:56:00;101765.28;;;16.64;100.00
9784;BME280;4931;44.874;-1.092;2022-09-09T22:00:47;101773.78;;;16.49;100.00
9784;BME280;4931;44.874;-1.092;2022-09-09T22:05:32;101776.53;;;16.49;100.00
9784;BME280;4931;44.874;-1.092;2022-09-09T22:10:20;101766.63;;;16.42;100.00
9784;BME280;4931;44.874;-1.092;2022-09-09T22:15:09;101770.66;;;16.31;100.00
9784;BME280;4931;44.874;-1.092;2022-09-09T22:19:54;101772.34;;;16.27;100.00
9784;BME280;4931;44.874;-1.092;2022-09-09T22:24:40;101779.59;;;16.23;100.00
9784;BME280;4931;44.874;-1.092;2022-09-09T22:29:28;101779.22;;;16.05;100.00
9784;BME280;4931;44.874;-1.092;2022-09-09T22:34:14;101772.13;;;15.94;100.00
9784;BME280;4931;44.874;-1.092;2022-09-09T22:39:02;101769.97;;;15.91;100.00
9784;BME280;4931;44.874;-1.092;2022-09-09T22:43:49;101777.97;;;15.92;100.00
9784;BME280;4931;44.874;-1.092;2022-09-09T22:48:37;101776.09;;;15.48;100.00
9784;BME280;4931;44.874;-1.092;2022-09-09T22:53:23;101779.72;;;15.49;100.00
9784;BME280;4931;44.874;-1.092;2022-09-09T22:58:08;101788.03;;;15.43;100.00
9784;BME280;4931;44.874;-1.092;2022-09-09T23:02:54;101785.53;;;15.47;100.00
9784;BME280;4931;44.874;-1.092;2022-09-09T23:07:42;101777.56;;;15.40;100.00
9784;BME280;4931;44.874;-1.092;2022-09-09T23:12:28;101779.25;;;15.31;100.00
9784;BME280;4931;44.874;-1.092;2022-09-09T23:17:13;101776.50;;;15.31;100.00
9784;BME280;4931;44.874;-1.092;2022-09-09T23:22:00;101782.59;;;15.28;100.00
9784;BME280;4931;44.874;-1.092;2022-09-09T23:26:48;101794.09;;;15.01;100.00
9784;BME280;4931;44.874;-1.092;2022-09-09T23:31:34;101794.72;;;14.87;100.00
9784;BME280;4931;44.874;-1.092;2022-09-09T23:36:22;101787.22;;;14.93;100.00
9784;BME280;4931;44.874;-1.092;2022-09-09T23:41:09;101787.91;;;14.69;100.00
9784;BME280;4931;44.874;-1.092;2022-09-09T23:45:57;101782.69;;;14.52;100.00
9784;BME280;4931;44.874;-1.092;2022-09-09T23:50:44;101785.72;;;14.51;100.00
9784;BME280;4931;44.874;-1.092;2022-09-09T23:55:31;101785.72;;;14.56;100.00
